EZY96QE EDDL-EGKK
Flight info
| Callsign | EZY96QE |
|---|---|
| Flight time | 1h 0m |
| Altitude | 32000 |
| Route | MODRU7Z/05R MODRU Z717 MAS UM617 SOGRI DCT DENUT L610 TEBRA |
| Aircraft | A319/M-SDE3FGHIRWY/LB1 |
Departure
| Time | 2026-05-05 15:14 |
|---|---|
| Airport | Düsseldorf Airport (EDDL) |
Arrival
| Time | 2026-05-05 16:15 |
|---|---|
| Airport | London Gatwick Airport (EGKK) |
| Time | Latitude | Longitude | Altitude | Speed | Heading |
|---|---|---|---|---|---|
| 2026-05-05 14:33 | 51.28255 | 6.76730 | 130 ft | 0 kts | 224° |
| 2026-05-05 15:05 | 51.28290 | 6.76789 | 125 ft | 4 kts | 231° |
| 2026-05-05 15:05 | 51.28312 | 6.76835 | 123 ft | 4 kts | 235° |
| 2026-05-05 15:05 | 51.28322 | 6.76858 | 126 ft | 4 kts | 238° |
| 2026-05-05 15:06 | 51.28336 | 6.76895 | 126 ft | 4 kts | 241° |
| 2026-05-05 15:06 | 51.28349 | 6.76934 | 124 ft | 4 kts | 243° |
| 2026-05-05 15:06 | 51.28360 | 6.76965 | 124 ft | 1 kts | 233° |
| 2026-05-05 15:09 | 51.28359 | 6.76964 | 129 ft | 0 kts | 232° |
| 2026-05-05 15:09 | 51.28357 | 6.76960 | 129 ft | 0 kts | 232° |
| 2026-05-05 15:10 | 51.28353 | 6.76952 | 129 ft | 3 kts | 232° |
| 2026-05-05 15:10 | 51.28344 | 6.76875 | 127 ft | 9 kts | 274° |
| 2026-05-05 15:10 | 51.28353 | 6.76762 | 126 ft | 11 kts | 289° |
| 2026-05-05 15:10 | 51.28410 | 6.76673 | 127 ft | 12 kts | 315° |
| 2026-05-05 15:11 | 51.28377 | 6.76543 | 126 ft | 18 kts | 229° |
| 2026-05-05 15:11 | 51.28284 | 6.76350 | 127 ft | 23 kts | 233° |
| 2026-05-05 15:11 | 51.28190 | 6.76151 | 127 ft | 22 kts | 233° |
| 2026-05-05 15:11 | 51.28096 | 6.75955 | 128 ft | 22 kts | 234° |
| 2026-05-05 15:12 | 51.28002 | 6.75757 | 128 ft | 23 kts | 232° |
| 2026-05-05 15:12 | 51.27950 | 6.75648 | 129 ft | 11 kts | 232° |
| 2026-05-05 15:12 | 51.27900 | 6.75540 | 128 ft | 13 kts | 234° |
| 2026-05-05 15:12 | 51.27844 | 6.75419 | 123 ft | 12 kts | 233° |
| 2026-05-05 15:13 | 51.27878 | 6.75317 | 125 ft | 13 kts | 332° |
| 2026-05-05 15:13 | 51.27968 | 6.75248 | 120 ft | 15 kts | 346° |
| 2026-05-05 15:13 | 51.28000 | 6.75280 | 119 ft | 0 kts | 51° |
| 2026-05-05 15:13 | 51.28004 | 6.75288 | 119 ft | 6 kts | 51° |
| 2026-05-05 15:14 | 51.28207 | 6.75695 | 129 ft | 86 kts | 52° |
| 2026-05-05 15:14 | 51.28702 | 6.76744 | 133 ft | 148 kts | 52° |
| 2026-05-05 15:14 | 51.29356 | 6.78105 | 668 ft | 156 kts | 49° |
| 2026-05-05 15:14 | 51.30005 | 6.79502 | 1422 ft | 160 kts | 52° |
| 2026-05-05 15:15 | 51.30706 | 6.80987 | 1892 ft | 180 kts | 52° |
| 2026-05-05 15:15 | 51.31510 | 6.82685 | 2288 ft | 202 kts | 53° |
| 2026-05-05 15:15 | 51.32406 | 6.84579 | 2750 ft | 226 kts | 53° |
| 2026-05-05 15:15 | 51.33405 | 6.86694 | 3305 ft | 249 kts | 53° |
| 2026-05-05 15:16 | 51.34468 | 6.88958 | 4164 ft | 260 kts | 49° |
| 2026-05-05 15:16 | 51.35965 | 6.90612 | 5032 ft | 269 kts | 18° |
| 2026-05-05 15:16 | 51.37820 | 6.91183 | 5969 ft | 275 kts | 8° |
| 2026-05-05 15:16 | 51.39734 | 6.91667 | 6873 ft | 281 kts | 8° |
| 2026-05-05 15:17 | 51.41687 | 6.92182 | 7769 ft | 287 kts | 9° |
| 2026-05-05 15:17 | 51.43679 | 6.92718 | 8680 ft | 293 kts | 9° |
| 2026-05-05 15:17 | 51.45715 | 6.93183 | 9592 ft | 299 kts | 1° |
| 2026-05-05 15:17 | 51.47780 | 6.92726 | 10407 ft | 303 kts | 340° |
| 2026-05-05 15:18 | 51.49693 | 6.91097 | 10774 ft | 324 kts | 318° |
| 2026-05-05 15:18 | 51.51134 | 6.88233 | 11232 ft | 337 kts | 295° |
| 2026-05-05 15:18 | 51.52016 | 6.84714 | 11949 ft | 343 kts | 288° |
| 2026-05-05 15:18 | 51.52854 | 6.81102 | 12742 ft | 348 kts | 286° |
| 2026-05-05 15:19 | 51.53235 | 6.77316 | 13489 ft | 350 kts | 267° |
| 2026-05-05 15:19 | 51.52986 | 6.73422 | 14197 ft | 353 kts | 261° |
| 2026-05-05 15:19 | 51.52661 | 6.69490 | 14906 ft | 357 kts | 260° |
| 2026-05-05 15:19 | 51.52324 | 6.65523 | 15613 ft | 361 kts | 260° |
| 2026-05-05 15:20 | 51.51985 | 6.61508 | 16324 ft | 364 kts | 260° |
| 2026-05-05 15:20 | 51.51647 | 6.57455 | 17032 ft | 368 kts | 261° |
| 2026-05-05 15:20 | 51.51306 | 6.53369 | 17745 ft | 372 kts | 261° |
| 2026-05-05 15:20 | 51.50959 | 6.49238 | 18412 ft | 375 kts | 261° |
| 2026-05-05 15:21 | 51.50607 | 6.45072 | 19031 ft | 378 kts | 260° |
| 2026-05-05 15:21 | 51.50253 | 6.40872 | 19520 ft | 380 kts | 260° |
| 2026-05-05 15:21 | 51.49899 | 6.36665 | 19887 ft | 381 kts | 260° |
| 2026-05-05 15:21 | 51.49542 | 6.32447 | 20262 ft | 382 kts | 260° |
| 2026-05-05 15:22 | 51.49181 | 6.28208 | 20638 ft | 384 kts | 260° |
| 2026-05-05 15:22 | 51.48818 | 6.23954 | 21023 ft | 386 kts | 260° |
| 2026-05-05 15:22 | 51.48451 | 6.19678 | 21411 ft | 388 kts | 259° |
| 2026-05-05 15:22 | 51.48079 | 6.15377 | 21803 ft | 390 kts | 259° |
| 2026-05-05 15:23 | 51.47704 | 6.11064 | 22200 ft | 392 kts | 259° |
| 2026-05-05 15:23 | 51.47326 | 6.06734 | 22603 ft | 394 kts | 259° |
| 2026-05-05 15:23 | 51.46942 | 6.02371 | 23014 ft | 396 kts | 259° |
| 2026-05-05 15:23 | 51.46560 | 5.98054 | 23420 ft | 398 kts | 259° |
| 2026-05-05 15:24 | 51.46169 | 5.93658 | 23778 ft | 399 kts | 259° |
| 2026-05-05 15:24 | 51.45774 | 5.89237 | 24128 ft | 401 kts | 259° |
| 2026-05-05 15:24 | 51.45377 | 5.84802 | 24484 ft | 403 kts | 259° |
| 2026-05-05 15:24 | 51.44977 | 5.80344 | 24846 ft | 404 kts | 259° |
| 2026-05-05 15:25 | 51.44574 | 5.75882 | 25210 ft | 406 kts | 259° |
| 2026-05-05 15:25 | 51.44167 | 5.71386 | 25573 ft | 408 kts | 259° |
| 2026-05-05 15:25 | 51.43758 | 5.66873 | 25958 ft | 410 kts | 259° |
| 2026-05-05 15:25 | 51.43348 | 5.62339 | 26336 ft | 412 kts | 259° |
| 2026-05-05 15:26 | 51.42933 | 5.57789 | 26724 ft | 414 kts | 258° |
| 2026-05-05 15:26 | 51.42510 | 5.53220 | 27112 ft | 416 kts | 258° |
| 2026-05-05 15:26 | 51.42075 | 5.48625 | 27511 ft | 418 kts | 258° |
| 2026-05-05 15:26 | 51.41638 | 5.44019 | 27911 ft | 420 kts | 258° |
| 2026-05-05 15:27 | 51.41203 | 5.39388 | 28322 ft | 421 kts | 258° |
| 2026-05-05 15:27 | 51.40768 | 5.34736 | 28735 ft | 424 kts | 258° |
| 2026-05-05 15:27 | 51.40337 | 5.30122 | 29151 ft | 426 kts | 258° |
| 2026-05-05 15:27 | 51.39897 | 5.25421 | 29575 ft | 428 kts | 258° |
| 2026-05-05 15:28 | 51.39453 | 5.20699 | 29929 ft | 431 kts | 258° |
| 2026-05-05 15:28 | 51.39003 | 5.15945 | 30183 ft | 433 kts | 258° |
| 2026-05-05 15:28 | 51.38545 | 5.11169 | 30432 ft | 435 kts | 258° |
| 2026-05-05 15:28 | 51.38079 | 5.06373 | 30680 ft | 437 kts | 258° |
| 2026-05-05 15:29 | 51.37609 | 5.01560 | 30950 ft | 439 kts | 258° |
| 2026-05-05 15:29 | 51.37138 | 4.96721 | 31206 ft | 441 kts | 258° |
| 2026-05-05 15:29 | 51.36664 | 4.91879 | 31464 ft | 442 kts | 258° |
| 2026-05-05 15:29 | 51.36186 | 4.87015 | 31723 ft | 442 kts | 257° |
| 2026-05-05 15:30 | 51.35707 | 4.82159 | 31881 ft | 441 kts | 257° |
| 2026-05-05 15:30 | 51.35240 | 4.77388 | 31911 ft | 427 kts | 257° |
| 2026-05-05 15:30 | 51.34788 | 4.72739 | 31895 ft | 421 kts | 257° |
| 2026-05-05 15:31 | 51.33873 | 4.63535 | 31896 ft | 418 kts | 257° |
| 2026-05-05 15:31 | 51.32936 | 4.54365 | 31893 ft | 418 kts | 257° |
| 2026-05-05 15:32 | 51.32006 | 4.45242 | 31895 ft | 419 kts | 257° |
| 2026-05-05 15:32 | 51.31061 | 4.36060 | 31895 ft | 419 kts | 257° |
| 2026-05-05 15:33 | 51.30110 | 4.26883 | 31889 ft | 419 kts | 257° |
| 2026-05-05 15:33 | 51.29158 | 4.17700 | 31888 ft | 419 kts | 257° |
| 2026-05-05 15:34 | 51.28198 | 4.08518 | 31876 ft | 419 kts | 257° |
| 2026-05-05 15:34 | 51.27230 | 3.99338 | 31881 ft | 419 kts | 257° |
| 2026-05-05 15:35 | 51.26257 | 3.90161 | 31872 ft | 419 kts | 257° |
| 2026-05-05 15:35 | 51.25271 | 3.80988 | 31879 ft | 419 kts | 256° |
| 2026-05-05 15:36 | 51.24275 | 3.71818 | 31885 ft | 419 kts | 256° |
| 2026-05-05 15:36 | 51.24111 | 3.62477 | 31881 ft | 427 kts | 274° |
| 2026-05-05 15:37 | 51.25311 | 3.53152 | 31880 ft | 429 kts | 278° |
| 2026-05-05 15:37 | 51.26543 | 3.43827 | 31893 ft | 429 kts | 278° |
| 2026-05-05 15:38 | 51.27755 | 3.34501 | 31901 ft | 429 kts | 278° |
| 2026-05-05 15:38 | 51.28958 | 3.25173 | 31907 ft | 428 kts | 278° |
| 2026-05-05 15:39 | 51.30134 | 3.15925 | 31911 ft | 428 kts | 278° |
| 2026-05-05 15:39 | 51.31313 | 3.06606 | 31909 ft | 427 kts | 278° |
| 2026-05-05 15:40 | 51.32480 | 2.97302 | 31914 ft | 427 kts | 278° |
| 2026-05-05 15:40 | 51.33648 | 2.87975 | 31757 ft | 432 kts | 278° |
| 2026-05-05 15:40 | 51.34239 | 2.83214 | 30829 ft | 439 kts | 278° |
| 2026-05-05 15:41 | 51.34828 | 2.78454 | 30260 ft | 434 kts | 278° |
| 2026-05-05 15:41 | 51.35414 | 2.73729 | 29619 ft | 431 kts | 278° |
| 2026-05-05 15:41 | 51.35996 | 2.69061 | 29062 ft | 425 kts | 278° |
| 2026-05-05 15:41 | 51.36568 | 2.64452 | 28507 ft | 420 kts | 278° |
| 2026-05-05 15:42 | 51.37129 | 2.59900 | 27963 ft | 414 kts | 278° |
| 2026-05-05 15:42 | 51.37681 | 2.55400 | 27427 ft | 410 kts | 278° |
| 2026-05-05 15:42 | 51.38228 | 2.50954 | 26898 ft | 405 kts | 278° |
| 2026-05-05 15:42 | 51.38767 | 2.46546 | 26381 ft | 402 kts | 278° |
| 2026-05-05 15:43 | 51.39296 | 2.42180 | 25872 ft | 398 kts | 278° |
| 2026-05-05 15:43 | 51.39816 | 2.37845 | 25388 ft | 395 kts | 278° |
| 2026-05-05 15:43 | 51.40322 | 2.33591 | 24910 ft | 393 kts | 278° |
| 2026-05-05 15:43 | 51.40830 | 2.29307 | 24439 ft | 390 kts | 278° |
| 2026-05-05 15:44 | 51.41336 | 2.25048 | 23974 ft | 388 kts | 278° |
| 2026-05-05 15:44 | 51.41850 | 2.20814 | 23522 ft | 386 kts | 278° |
| 2026-05-05 15:44 | 51.42367 | 2.16611 | 23027 ft | 383 kts | 279° |
| 2026-05-05 15:44 | 51.42882 | 2.12453 | 22590 ft | 378 kts | 279° |
| 2026-05-05 15:45 | 51.43389 | 2.08335 | 22152 ft | 374 kts | 279° |
| 2026-05-05 15:45 | 51.43885 | 2.04265 | 21717 ft | 370 kts | 279° |
| 2026-05-05 15:45 | 51.44374 | 2.00236 | 21274 ft | 367 kts | 279° |
| 2026-05-05 15:45 | 51.44850 | 1.96245 | 20849 ft | 363 kts | 279° |
| 2026-05-05 15:46 | 51.45316 | 1.92281 | 20387 ft | 360 kts | 279° |
| 2026-05-05 15:46 | 51.45777 | 1.88342 | 19951 ft | 358 kts | 279° |
| 2026-05-05 15:46 | 51.46232 | 1.84430 | 19500 ft | 356 kts | 279° |
| 2026-05-05 15:46 | 51.46683 | 1.80529 | 19047 ft | 355 kts | 280° |
| 2026-05-05 15:47 | 51.47129 | 1.76653 | 18595 ft | 353 kts | 280° |
| 2026-05-05 15:47 | 51.47423 | 1.74087 | 18295 ft | 353 kts | 280° |
| 2026-05-05 15:47 | 51.48015 | 1.68921 | 17649 ft | 350 kts | 280° |
| 2026-05-05 15:47 | 51.48424 | 1.65086 | 17212 ft | 347 kts | 276° |
| 2026-05-05 15:48 | 51.48451 | 1.61234 | 16776 ft | 345 kts | 264° |
| 2026-05-05 15:48 | 51.48010 | 1.57473 | 16340 ft | 342 kts | 253° |
| 2026-05-05 15:48 | 51.47216 | 1.53894 | 15909 ft | 340 kts | 249° |
| 2026-05-05 15:48 | 51.46402 | 1.50384 | 15500 ft | 339 kts | 249° |
| 2026-05-05 15:49 | 51.45573 | 1.46799 | 15061 ft | 338 kts | 249° |
| 2026-05-05 15:49 | 51.44772 | 1.43319 | 14640 ft | 337 kts | 249° |
| 2026-05-05 15:49 | 51.43838 | 1.39890 | 14224 ft | 335 kts | 240° |
| 2026-05-05 15:49 | 51.42497 | 1.36860 | 13817 ft | 335 kts | 227° |
| 2026-05-05 15:50 | 51.40764 | 1.34330 | 13603 ft | 339 kts | 216° |
| 2026-05-05 15:50 | 51.38870 | 1.32087 | 13352 ft | 339 kts | 216° |
| 2026-05-05 15:50 | 51.36974 | 1.29842 | 13116 ft | 339 kts | 216° |
| 2026-05-05 15:50 | 51.35082 | 1.27599 | 12874 ft | 338 kts | 216° |
| 2026-05-05 15:51 | 51.33200 | 1.25367 | 12633 ft | 337 kts | 216° |
| 2026-05-05 15:51 | 51.31319 | 1.23144 | 12397 ft | 336 kts | 216° |
| 2026-05-05 15:51 | 51.29444 | 1.20932 | 12153 ft | 334 kts | 216° |
| 2026-05-05 15:51 | 51.27577 | 1.18729 | 11909 ft | 333 kts | 216° |
| 2026-05-05 15:52 | 51.25714 | 1.16528 | 11686 ft | 332 kts | 216° |
| 2026-05-05 15:52 | 51.23857 | 1.14339 | 11445 ft | 331 kts | 216° |
| 2026-05-05 15:52 | 51.22006 | 1.12165 | 11206 ft | 330 kts | 216° |
| 2026-05-05 15:52 | 51.20157 | 1.09995 | 10974 ft | 329 kts | 216° |
| 2026-05-05 15:53 | 51.18317 | 1.07838 | 10742 ft | 328 kts | 216° |
| 2026-05-05 15:53 | 51.16478 | 1.05693 | 10509 ft | 327 kts | 217° |
| 2026-05-05 15:53 | 51.14650 | 1.03558 | 10283 ft | 323 kts | 217° |
| 2026-05-05 15:53 | 51.12875 | 1.01482 | 10157 ft | 310 kts | 217° |
| 2026-05-05 15:54 | 51.11166 | 0.99488 | 9997 ft | 300 kts | 217° |
| 2026-05-05 15:54 | 51.09499 | 0.97548 | 9800 ft | 294 kts | 217° |
| 2026-05-05 15:54 | 51.07847 | 0.95628 | 9680 ft | 294 kts | 217° |
| 2026-05-05 15:54 | 51.06284 | 0.93555 | 9499 ft | 292 kts | 228° |
| 2026-05-05 15:55 | 51.05086 | 0.90970 | 9303 ft | 290 kts | 242° |
| 2026-05-05 15:55 | 51.04221 | 0.88089 | 9115 ft | 289 kts | 246° |
| 2026-05-05 15:55 | 51.03370 | 0.85200 | 8972 ft | 288 kts | 246° |
| 2026-05-05 15:55 | 51.02527 | 0.82365 | 8949 ft | 288 kts | 246° |
| 2026-05-05 15:56 | 51.01667 | 0.79495 | 8949 ft | 288 kts | 246° |
| 2026-05-05 15:56 | 51.00802 | 0.76625 | 8947 ft | 288 kts | 245° |
| 2026-05-05 15:56 | 50.99936 | 0.73757 | 8950 ft | 288 kts | 246° |
| 2026-05-05 15:56 | 50.99075 | 0.70894 | 8948 ft | 288 kts | 246° |
| 2026-05-05 15:57 | 50.98213 | 0.68024 | 8947 ft | 288 kts | 246° |
| 2026-05-05 15:57 | 50.97350 | 0.65158 | 8946 ft | 288 kts | 246° |
| 2026-05-05 15:57 | 50.96486 | 0.62289 | 8941 ft | 288 kts | 245° |
| 2026-05-05 15:57 | 50.95622 | 0.59426 | 8942 ft | 288 kts | 246° |
| 2026-05-05 15:58 | 50.94756 | 0.56560 | 8951 ft | 288 kts | 246° |
| 2026-05-05 15:58 | 50.93892 | 0.53697 | 9029 ft | 288 kts | 246° |
| 2026-05-05 15:58 | 50.93028 | 0.50832 | 9024 ft | 288 kts | 246° |
| 2026-05-05 15:58 | 50.92173 | 0.47962 | 8961 ft | 288 kts | 248° |
| 2026-05-05 15:59 | 50.91662 | 0.44914 | 8500 ft | 286 kts | 265° |
| 2026-05-05 15:59 | 50.91733 | 0.41791 | 8080 ft | 282 kts | 283° |
| 2026-05-05 15:59 | 50.91955 | 0.40390 | 8013 ft | 278 kts | 289° |
| 2026-05-05 15:59 | 50.92922 | 0.37732 | 8045 ft | 275 kts | 313° |
| 2026-05-05 16:00 | 50.94169 | 0.35535 | 8019 ft | 260 kts | 312° |
| 2026-05-05 16:00 | 50.95291 | 0.33406 | 8035 ft | 245 kts | 311° |
| 2026-05-05 16:00 | 50.96372 | 0.31344 | 8039 ft | 243 kts | 311° |
| 2026-05-05 16:00 | 50.97450 | 0.29289 | 8038 ft | 241 kts | 311° |
| 2026-05-05 16:01 | 50.98525 | 0.27239 | 8051 ft | 241 kts | 311° |
| 2026-05-05 16:01 | 50.99237 | 0.25888 | 8043 ft | 241 kts | 311° |
| 2026-05-05 16:01 | 51.00315 | 0.23842 | 8055 ft | 241 kts | 311° |
| 2026-05-05 16:01 | 51.01391 | 0.21793 | 8057 ft | 241 kts | 311° |
| 2026-05-05 16:02 | 51.02464 | 0.19747 | 8054 ft | 241 kts | 311° |
| 2026-05-05 16:02 | 51.03883 | 0.17036 | 8044 ft | 241 kts | 310° |
| 2026-05-05 16:02 | 51.04470 | 0.15495 | 8040 ft | 243 kts | 292° |
| 2026-05-05 16:02 | 51.04647 | 0.12823 | 7961 ft | 248 kts | 266° |
| 2026-05-05 16:03 | 51.04383 | 0.10132 | 7775 ft | 246 kts | 262° |
| 2026-05-05 16:03 | 51.04069 | 0.07464 | 7457 ft | 246 kts | 261° |
| 2026-05-05 16:03 | 51.03745 | 0.04801 | 7141 ft | 245 kts | 261° |
| 2026-05-05 16:03 | 51.03418 | 0.02146 | 6856 ft | 245 kts | 261° |
| 2026-05-05 16:04 | 51.03089 | -0.00493 | 6560 ft | 243 kts | 261° |
| 2026-05-05 16:04 | 51.02757 | -0.03128 | 6255 ft | 243 kts | 261° |
| 2026-05-05 16:04 | 51.02422 | -0.05761 | 5941 ft | 242 kts | 261° |
| 2026-05-05 16:04 | 51.02089 | -0.08385 | 5596 ft | 243 kts | 261° |
| 2026-05-05 16:05 | 51.01757 | -0.11005 | 5272 ft | 242 kts | 261° |
| 2026-05-05 16:05 | 51.01430 | -0.13586 | 4981 ft | 242 kts | 261° |
| 2026-05-05 16:05 | 51.01104 | -0.16199 | 4688 ft | 241 kts | 261° |
| 2026-05-05 16:05 | 51.00777 | -0.18806 | 4351 ft | 241 kts | 261° |
| 2026-05-05 16:06 | 51.00453 | -0.21412 | 4033 ft | 240 kts | 261° |
| 2026-05-05 16:06 | 51.00134 | -0.24013 | 3695 ft | 240 kts | 261° |
| 2026-05-05 16:06 | 50.99826 | -0.26609 | 3404 ft | 239 kts | 262° |
| 2026-05-05 16:06 | 50.99518 | -0.29188 | 3109 ft | 238 kts | 261° |
| 2026-05-05 16:07 | 50.99259 | -0.31775 | 2990 ft | 236 kts | 270° |
| 2026-05-05 16:07 | 50.99400 | -0.34360 | 3008 ft | 235 kts | 280° |
| 2026-05-05 16:07 | 50.99641 | -0.36923 | 3007 ft | 235 kts | 281° |
| 2026-05-05 16:07 | 50.99892 | -0.39496 | 3009 ft | 236 kts | 281° |
| 2026-05-05 16:08 | 51.00156 | -0.42064 | 3004 ft | 236 kts | 284° |
| 2026-05-05 16:08 | 51.00870 | -0.44329 | 3003 ft | 230 kts | 316° |
| 2026-05-05 16:08 | 51.02162 | -0.45755 | 3017 ft | 226 kts | 334° |
| 2026-05-05 16:08 | 51.03558 | -0.46899 | 3006 ft | 225 kts | 335° |
| 2026-05-05 16:09 | 51.04964 | -0.48005 | 3004 ft | 226 kts | 336° |
| 2026-05-05 16:09 | 51.06371 | -0.49113 | 3004 ft | 225 kts | 336° |
| 2026-05-05 16:09 | 51.07676 | -0.50099 | 2993 ft | 210 kts | 341° |
| 2026-05-05 16:09 | 51.09084 | -0.50216 | 2987 ft | 190 kts | 18° |
| 2026-05-05 16:10 | 51.10185 | -0.49195 | 3035 ft | 182 kts | 44° |
| 2026-05-05 16:10 | 51.10833 | -0.47506 | 3014 ft | 181 kts | 71° |
| 2026-05-05 16:10 | 51.11113 | -0.45552 | 3012 ft | 180 kts | 75° |
| 2026-05-05 16:10 | 51.11388 | -0.43604 | 3005 ft | 181 kts | 76° |
| 2026-05-05 16:11 | 51.11660 | -0.41665 | 2852 ft | 178 kts | 76° |
| 2026-05-05 16:11 | 51.12445 | -0.36066 | 2203 ft | 166 kts | 75° |
| 2026-05-05 16:12 | 51.12687 | -0.34334 | 1990 ft | 158 kts | 76° |
| 2026-05-05 16:12 | 51.13160 | -0.30945 | 1560 ft | 156 kts | 76° |
| 2026-05-05 16:13 | 51.13824 | -0.26172 | 943 ft | 128 kts | 76° |
| 2026-05-05 16:13 | 51.14013 | -0.24809 | 763 ft | 126 kts | 78° |
| 2026-05-05 16:13 | 51.14200 | -0.23473 | 617 ft | 122 kts | 78° |
| 2026-05-05 16:14 | 51.14565 | -0.20841 | 267 ft | 121 kts | 78° |
| 2026-05-05 16:14 | 51.14861 | -0.18717 | 209 ft | 59 kts | 78° |
| 2026-05-05 16:15 | 51.15014 | -0.17894 | 215 ft | 23 kts | 51° |
| 2026-05-05 16:15 | 51.15078 | -0.17773 | 210 ft | 1 kts | 36° |
| 2026-05-05 16:16 | 51.15106 | -0.17756 | 209 ft | 0 kts | 350° |
| 2026-05-05 16:17 | 51.15108 | -0.17756 | 208 ft | 1 kts | 350° |
| 2026-05-05 16:18 | 51.15166 | -0.17796 | 205 ft | 9 kts | 304° |
| 2026-05-05 16:18 | 51.15156 | -0.17890 | 210 ft | 9 kts | 254° |
| 2026-05-05 16:18 | 51.15129 | -0.18055 | 216 ft | 7 kts | 257° |